createdAt,value
2023-05-05T00:01:23.656Z,14.56
2023-05-05T00:03:50.204Z,14.21
2023-05-05T00:06:16.851Z,13.94
2023-05-05T00:08:43.311Z,13.92
2023-05-05T00:11:09.732Z,13.91
2023-05-05T00:13:37.927Z,13.94
2023-05-05T00:16:04.643Z,13.86
2023-05-05T00:18:31.098Z,13.76
2023-05-05T00:20:57.539Z,13.85
2023-05-05T00:23:23.992Z,14.20
2023-05-05T00:25:50.416Z,14.07
2023-05-05T00:28:16.867Z,14.03
2023-05-05T00:30:44.841Z,13.71
2023-05-05T00:33:11.281Z,13.15
2023-05-05T00:35:37.714Z,13.45
2023-05-05T00:38:04.299Z,13.60
2023-05-05T00:40:30.875Z,13.73
2023-05-05T00:42:57.327Z,13.77
2023-05-05T00:45:23.867Z,13.65
2023-05-05T00:47:52.538Z,13.67
2023-05-05T00:50:21.644Z,13.49
2023-05-05T00:52:48.122Z,13.40
2023-05-05T00:55:14.573Z,13.43
2023-05-05T00:57:41.029Z,13.62
2023-05-05T01:00:08.267Z,13.60
2023-05-05T01:02:34.978Z,13.74
2023-05-05T01:05:02.847Z,13.64
2023-05-05T01:07:32.841Z,13.52
2023-05-05T01:10:15.069Z,13.69
2023-05-05T01:12:46.750Z,13.92
2023-05-05T01:15:21.282Z,13.73
2023-05-05T01:17:50.455Z,13.61
2023-05-05T01:20:20.097Z,13.62
2023-05-05T01:22:46.823Z,13.62
2023-05-05T01:25:25.311Z,13.82
2023-05-05T01:27:55.125Z,13.86
2023-05-05T01:30:27.624Z,13.87
2023-05-05T01:32:56.858Z,13.83
2023-05-05T01:35:25.849Z,13.77
2023-05-05T01:37:55.488Z,14.08
2023-05-05T01:40:22.691Z,14.06
2023-05-05T01:42:49.183Z,13.84
2023-05-05T01:45:15.598Z,13.82
2023-05-05T01:47:42.145Z,13.92
2023-05-05T01:50:10.580Z,14.10
2023-05-05T01:52:37.327Z,13.91
2023-05-05T01:55:03.882Z,13.97
2023-05-05T01:57:30.477Z,13.77
2023-05-05T01:59:56.879Z,13.64
2023-05-05T02:02:23.371Z,13.50
2023-05-05T02:04:49.853Z,13.44
2023-05-05T02:07:17.685Z,13.40
2023-05-05T02:09:44.079Z,13.36
2023-05-05T02:12:10.496Z,13.31
2023-05-05T02:14:36.971Z,13.30
2023-05-05T02:17:03.376Z,13.32
2023-05-05T02:19:30.767Z,13.64
2023-05-05T02:21:57.207Z,13.68
2023-05-05T02:24:25.070Z,13.35
2023-05-05T02:26:51.777Z,13.29
2023-05-05T02:29:19.105Z,13.52
2023-05-05T02:31:46.931Z,13.30
2023-05-05T02:34:13.539Z,12.92
2023-05-05T02:36:39.975Z,12.97
2023-05-05T02:39:07.558Z,13.03
2023-05-05T02:41:36.182Z,12.99
2023-05-05T02:44:02.713Z,13.01
2023-05-05T02:46:29.147Z,12.96
2023-05-05T02:48:55.591Z,12.91
2023-05-05T02:51:22.098Z,12.93
2023-05-05T02:53:48.535Z,12.99
2023-05-05T02:56:16.688Z,12.96
2023-05-05T02:58:46.401Z,12.79
2023-05-05T03:01:15.898Z,12.81
2023-05-05T03:03:44.596Z,13.02
2023-05-05T03:06:11.708Z,13.05
2023-05-05T03:08:41.034Z,13.19
2023-05-05T03:11:08.231Z,13.23
2023-05-05T03:13:35.087Z,13.23
2023-05-05T03:16:03.017Z,13.19
2023-05-05T03:18:29.519Z,13.21
2023-05-05T03:20:56.036Z,13.17
2023-05-05T03:23:22.448Z,13.17
2023-05-05T03:25:49.483Z,13.07
2023-05-05T03:28:16.172Z,13.04
2023-05-05T03:30:42.722Z,13.06
2023-05-05T03:33:11.116Z,13.06
2023-05-05T03:35:37.554Z,13.19
2023-05-05T03:38:04.004Z,13.13
2023-05-05T03:40:42.889Z,13.12
2023-05-05T03:43:10.447Z,12.83
2023-05-05T03:45:36.948Z,12.86
2023-05-05T03:48:03.623Z,12.77
2023-05-05T03:50:31.511Z,12.86
2023-05-05T03:52:57.955Z,12.94
2023-05-05T03:55:24.422Z,13.03
2023-05-05T03:57:51.041Z,13.14
2023-05-05T04:00:17.887Z,13.27
2023-05-05T04:02:44.496Z,13.25
2023-05-05T04:05:11.041Z,13.08
2023-05-05T04:07:38.862Z,13.02
2023-05-05T04:10:06.120Z,13.00
2023-05-05T04:12:32.804Z,12.97
2023-05-05T04:14:59.258Z,13.01
2023-05-05T04:17:25.890Z,13.05
2023-05-05T04:19:52.386Z,13.10
2023-05-05T04:22:18.891Z,13.14
2023-05-05T04:24:46.674Z,13.23
2023-05-05T04:27:13.163Z,13.31
2023-05-05T04:29:39.610Z,13.31
2023-05-05T04:32:06.225Z,13.36
2023-05-05T04:34:32.703Z,13.39
2023-05-05T04:36:59.170Z,13.53
2023-05-05T04:39:25.692Z,13.62
2023-05-05T04:41:53.569Z,13.60
2023-05-05T04:44:20.004Z,13.68
2023-05-05T04:46:46.486Z,13.80
2023-05-05T04:49:12.964Z,13.95
2023-05-05T04:51:40.782Z,14.12
2023-05-05T04:54:07.228Z,14.41
2023-05-05T04:56:33.668Z,14.80
2023-05-05T04:59:01.566Z,15.02
2023-05-05T05:01:28.027Z,14.96
2023-05-05T05:03:54.544Z,14.89
2023-05-05T05:06:21.065Z,14.90
2023-05-05T05:08:47.506Z,14.97
2023-05-05T05:11:13.926Z,15.19
2023-05-05T05:13:40.373Z,15.35
2023-05-05T05:16:08.406Z,15.30
2023-05-05T05:18:34.896Z,15.35
2023-05-05T05:21:01.379Z,15.48
2023-05-05T05:23:27.812Z,15.50
2023-05-05T05:25:54.292Z,15.85
2023-05-05T05:28:20.713Z,16.26
2023-05-05T05:30:47.211Z,16.38
2023-05-05T05:33:15.018Z,16.43
2023-05-05T05:35:41.499Z,16.31
2023-05-05T05:38:08.028Z,16.14
2023-05-05T05:40:34.469Z,16.40
2023-05-05T05:43:00.952Z,16.47
2023-05-05T05:45:27.418Z,16.75
2023-05-05T05:47:53.857Z,17.30
2023-05-05T05:50:21.778Z,17.51
2023-05-05T05:52:48.224Z,17.59
2023-05-05T05:55:14.694Z,17.52
2023-05-05T05:57:41.148Z,17.95
2023-05-05T06:00:08.486Z,17.99
2023-05-05T06:02:35.245Z,17.99
2023-05-05T06:05:01.835Z,17.84
2023-05-05T06:07:29.713Z,17.77
2023-05-05T06:09:56.201Z,17.88
2023-05-05T06:12:22.614Z,18.38
2023-05-05T06:14:49.075Z,18.71
2023-05-05T06:17:15.533Z,19.42
2023-05-05T06:19:42.051Z,19.78
2023-05-05T06:22:08.470Z,19.93
2023-05-05T06:24:36.284Z,20.02
2023-05-05T06:27:02.754Z,20.14
2023-05-05T06:29:29.238Z,20.41
2023-05-05T06:31:55.653Z,20.30
2023-05-05T06:34:22.106Z,19.67
2023-05-05T06:36:48.613Z,19.70
2023-05-05T06:39:16.165Z,19.48
2023-05-05T06:41:44.227Z,19.45
2023-05-05T06:44:10.717Z,19.31
2023-05-05T06:46:37.205Z,19.79
2023-05-05T06:49:04.125Z,20.08
2023-05-05T06:51:31.329Z,20.24
2023-05-05T06:53:57.755Z,20.46
2023-05-05T06:56:24.253Z,20.47
2023-05-05T06:58:52.074Z,20.71
2023-05-05T07:01:18.658Z,21.12
2023-05-05T07:03:45.269Z,20.92
2023-05-05T07:06:11.869Z,20.62
2023-05-05T07:08:38.364Z,20.74
2023-05-05T07:11:04.803Z,20.79
2023-05-05T07:13:31.236Z,20.91
2023-05-05T07:15:59.173Z,20.84
2023-05-05T07:18:25.645Z,21.06
2023-05-05T07:20:52.109Z,21.52
2023-05-05T07:23:18.567Z,21.53
2023-05-05T07:25:45.032Z,22.04
2023-05-05T07:28:11.553Z,22.06
2023-05-05T07:30:38.006Z,22.52
2023-05-05T07:33:05.858Z,22.38
2023-05-05T07:35:32.298Z,22.07
2023-05-05T07:37:58.762Z,22.42
2023-05-05T07:40:25.281Z,22.35
2023-05-05T07:42:51.786Z,22.15
2023-05-05T07:45:18.596Z,22.27
2023-05-05T07:47:45.124Z,22.23
2023-05-05T07:50:12.961Z,22.39
2023-05-05T07:55:08.865Z,22.78
2023-05-05T07:57:37.164Z,23.27
2023-05-05T08:00:03.978Z,22.95
2023-05-05T08:02:30.571Z,23.24
2023-05-05T08:04:57.056Z,23.46
2023-05-05T08:07:24.966Z,23.49
2023-05-05T08:09:51.391Z,23.57
2023-05-05T08:12:17.888Z,23.66
2023-05-05T08:14:44.343Z,23.94
2023-05-05T08:17:11.226Z,23.72
2023-05-05T08:19:37.656Z,24.24
2023-05-05T08:22:04.131Z,24.18
2023-05-05T08:24:31.951Z,24.05
2023-05-05T08:26:58.439Z,23.88
2023-05-05T08:29:24.863Z,23.86
2023-05-05T08:31:51.661Z,23.74
2023-05-05T08:34:18.194Z,23.92
2023-05-05T08:36:44.665Z,23.70
2023-05-05T08:39:11.094Z,24.11
2023-05-05T08:41:38.925Z,24.36
2023-05-05T08:44:05.385Z,24.73
2023-05-05T08:46:31.867Z,25.10
2023-05-05T08:48:58.494Z,25.16
2023-05-05T08:51:25.053Z,24.76
2023-05-05T08:53:54.532Z,24.36
2023-05-05T08:56:21.093Z,24.74
2023-05-05T08:58:48.898Z,24.21
2023-05-05T09:01:15.416Z,24.04
2023-05-05T09:03:41.878Z,24.21
2023-05-05T09:06:08.314Z,24.23
2023-05-05T09:08:34.719Z,25.28
2023-05-05T09:11:01.232Z,25.46
2023-05-05T09:13:27.692Z,24.69
2023-05-05T09:15:55.618Z,24.87
2023-05-05T09:18:22.096Z,25.61
2023-05-05T09:20:48.654Z,25.37
2023-05-05T09:23:15.628Z,24.77
2023-05-05T09:25:43.884Z,24.41
2023-05-05T09:28:10.649Z,24.46
2023-05-05T09:30:37.282Z,25.08
2023-05-05T09:33:05.234Z,25.38
2023-05-05T09:35:46.548Z,25.60
2023-05-05T09:38:12.986Z,24.71
2023-05-05T09:40:44.370Z,24.48
2023-05-05T09:43:10.789Z,24.85
2023-05-05T09:45:37.246Z,25.32
2023-05-05T09:48:06.247Z,25.63
2023-05-05T09:51:00.208Z,25.27
2023-05-05T09:53:44.724Z,25.17
2023-05-05T09:56:11.468Z,25.50
2023-05-05T09:58:38.108Z,25.03
2023-05-05T10:01:04.588Z,25.89
2023-05-05T10:03:32.836Z,26.67
2023-05-05T10:05:59.260Z,26.46
2023-05-05T10:08:26.124Z,25.92
2023-05-05T10:10:53.135Z,25.98
2023-05-05T10:13:20.058Z,25.79
2023-05-05T10:15:47.458Z,25.85
2023-05-05T10:18:13.963Z,26.44
2023-05-05T10:20:41.955Z,25.91
2023-05-05T10:23:08.400Z,26.07
2023-05-05T10:25:35.517Z,26.39
2023-05-05T10:28:02.118Z,26.67
2023-05-05T10:30:29.560Z,25.95
2023-05-05T10:33:09.103Z,25.82
2023-05-05T10:35:45.529Z,25.84
2023-05-05T10:38:12.522Z,26.45
2023-05-05T10:40:39.216Z,26.92
2023-05-05T10:43:05.687Z,27.07
2023-05-05T10:45:32.340Z,26.88
2023-05-05T10:47:59.251Z,27.48
2023-05-05T10:50:27.586Z,26.38
2023-05-05T10:52:58.623Z,26.04
2023-05-05T10:55:27.830Z,25.19
2023-05-05T10:57:54.281Z,24.95
2023-05-05T11:00:44.907Z,25.01
2023-05-05T11:03:21.102Z,25.71
2023-05-05T11:06:06.146Z,26.43
2023-05-05T11:08:34.269Z,26.68
2023-05-05T11:11:00.847Z,26.59
2023-05-05T11:13:30.425Z,26.73
2023-05-05T11:16:00.982Z,26.66
2023-05-05T11:18:30.975Z,25.38
2023-05-05T11:21:15.000Z,25.87
2023-05-05T11:26:45.716Z,25.94
2023-05-05T11:29:12.115Z,26.68
2023-05-05T11:32:02.630Z,27.20
2023-05-05T11:34:32.078Z,27.35
2023-05-05T11:37:00.661Z,27.57
2023-05-05T11:39:32.337Z,27.91
2023-05-05T11:42:31.088Z,28.43
2023-05-05T11:44:57.531Z,28.44
2023-05-05T11:47:32.999Z,28.75
2023-05-05T11:50:01.116Z,27.82
2023-05-05T11:52:27.577Z,27.78
2023-05-05T11:54:59.627Z,27.20
2023-05-05T11:57:27.560Z,27.18
2023-05-05T11:59:55.139Z,26.84
2023-05-05T12:02:21.880Z,26.53
2023-05-05T12:04:48.490Z,26.83
2023-05-05T12:07:15.144Z,26.55
2023-05-05T12:09:42.568Z,27.21
2023-05-05T12:12:10.378Z,27.87
2023-05-05T12:14:44.434Z,27.77
2023-05-05T12:17:10.856Z,27.49
2023-05-05T12:19:37.287Z,27.32
2023-05-05T12:22:04.124Z,27.75
2023-05-05T12:24:30.748Z,27.90
2023-05-05T12:27:06.798Z,28.20
2023-05-05T12:29:34.655Z,28.17
2023-05-05T12:32:01.134Z,27.58
2023-05-05T12:34:27.617Z,27.14
2023-05-05T12:36:54.048Z,27.10
2023-05-05T12:39:20.559Z,27.10
2023-05-05T12:41:47.003Z,26.68
2023-05-05T12:44:13.486Z,26.41
2023-05-05T12:46:50.284Z,26.52
2023-05-05T12:49:16.735Z,26.65
2023-05-05T12:51:52.375Z,26.67
2023-05-05T12:54:18.847Z,26.86
2023-05-05T12:56:45.665Z,27.13
2023-05-05T12:59:12.618Z,26.85
2023-05-05T13:01:47.854Z,26.75
2023-05-05T13:04:15.762Z,26.74
2023-05-05T13:06:43.007Z,26.21
2023-05-05T13:09:09.622Z,27.20
2023-05-05T13:11:38.132Z,27.58
2023-05-05T13:14:04.738Z,27.30
2023-05-05T13:16:31.274Z,27.92
2023-05-05T13:18:57.737Z,28.28
2023-05-05T13:21:25.603Z,28.74
2023-05-05T13:23:52.034Z,28.70
2023-05-05T13:26:18.501Z,27.33
2023-05-05T13:28:44.917Z,27.42
2023-05-05T13:31:11.400Z,28.00
2023-05-05T13:33:37.845Z,27.57
2023-05-05T13:36:04.537Z,27.50
2023-05-05T13:38:32.328Z,27.53
2023-05-05T13:40:58.888Z,26.69
2023-05-05T13:43:25.405Z,27.49
2023-05-05T13:45:51.881Z,27.99
2023-05-05T13:48:18.492Z,28.27
2023-05-05T13:50:44.898Z,28.15
2023-05-05T13:53:11.344Z,27.35
2023-05-05T13:55:39.148Z,27.69
2023-05-05T13:58:05.659Z,26.85
2023-05-05T14:00:39.903Z,27.24
2023-05-05T14:03:06.417Z,27.81
2023-05-05T14:05:32.851Z,27.63
2023-05-05T14:07:59.368Z,27.43
2023-05-05T14:10:26.022Z,27.76
2023-05-05T14:12:53.863Z,27.36
2023-05-05T14:15:20.342Z,27.15
2023-05-05T14:17:46.833Z,27.22
2023-05-05T14:20:13.341Z,27.08
2023-05-05T14:22:39.757Z,27.30
2023-05-05T14:25:06.829Z,27.09
2023-05-05T14:27:33.518Z,26.71
2023-05-05T14:30:01.352Z,26.09
2023-05-05T14:32:27.907Z,26.37
2023-05-05T14:34:54.461Z,26.66
2023-05-05T14:37:20.907Z,27.17
2023-05-05T14:39:47.411Z,26.75
2023-05-05T14:42:13.822Z,26.63
2023-05-05T14:44:40.280Z,26.59
2023-05-05T14:47:08.110Z,26.87
2023-05-05T14:49:34.580Z,26.83
2023-05-05T14:52:01.058Z,25.87
2023-05-05T14:54:28.612Z,26.22
2023-05-05T14:56:55.548Z,26.63
2023-05-05T14:59:21.984Z,26.40
2023-05-05T15:01:48.490Z,26.18
2023-05-05T15:04:16.454Z,26.85
2023-05-05T15:06:42.982Z,26.79
2023-05-05T15:09:09.481Z,26.58
2023-05-05T15:11:35.932Z,26.51
2023-05-05T15:14:02.419Z,26.01
2023-05-05T15:16:28.966Z,26.02
2023-05-05T15:18:55.472Z,26.00
2023-05-05T15:21:33.764Z,26.57
2023-05-05T15:24:00.266Z,26.59
2023-05-05T15:26:26.904Z,27.38
2023-05-05T15:28:53.350Z,27.40
2023-05-05T15:31:19.855Z,27.52
2023-05-05T15:33:46.295Z,26.83
2023-05-05T15:36:12.788Z,26.29
2023-05-05T15:38:41.236Z,26.79
2023-05-05T15:41:07.687Z,27.07
2023-05-05T15:43:34.099Z,26.55
2023-05-05T15:46:00.581Z,26.53
2023-05-05T15:48:27.096Z,26.76
2023-05-05T15:50:53.558Z,27.38
2023-05-05T15:53:19.982Z,27.53
2023-05-05T15:55:47.843Z,27.14
2023-05-05T15:58:14.287Z,26.51
2023-05-05T16:00:40.880Z,26.48
2023-05-05T16:03:07.343Z,26.26
2023-05-05T16:05:33.921Z,26.22
2023-05-05T16:08:00.384Z,25.80
2023-05-05T16:10:26.917Z,25.62
2023-05-05T16:12:54.804Z,25.61
2023-05-05T16:15:21.388Z,25.46
2023-05-05T16:17:47.847Z,25.98
2023-05-05T16:20:14.388Z,25.91
2023-05-05T16:22:40.806Z,26.14
2023-05-05T16:25:07.746Z,26.73
2023-05-05T16:27:34.398Z,27.08
2023-05-05T16:30:02.190Z,26.74
2023-05-05T16:32:28.769Z,26.04
2023-05-05T16:34:55.231Z,25.86
2023-05-05T16:37:21.659Z,25.54
2023-05-05T16:39:48.341Z,25.93
2023-05-05T16:42:14.799Z,26.19
2023-05-05T16:44:41.221Z,25.95
2023-05-05T16:47:09.056Z,25.66
2023-05-05T16:49:35.524Z,25.59
2023-05-05T16:52:01.954Z,25.48
2023-05-05T16:54:28.476Z,25.63
2023-05-05T16:56:54.933Z,25.96
2023-05-05T16:59:21.400Z,25.88
2023-05-05T17:01:47.837Z,26.01
2023-05-05T17:04:15.667Z,26.08
2023-05-05T17:06:42.173Z,26.05
2023-05-05T17:09:08.598Z,25.75
2023-05-05T17:11:35.046Z,25.68
2023-05-05T17:14:01.474Z,25.69
2023-05-05T17:16:28.019Z,25.59
2023-05-05T17:18:54.557Z,25.15
2023-05-05T17:21:22.395Z,24.99
2023-05-05T17:23:50.717Z,25.29
2023-05-05T17:26:18.025Z,25.43
2023-05-05T17:28:47.225Z,25.49
2023-05-05T17:31:13.758Z,25.58
2023-05-05T17:33:40.314Z,25.64
2023-05-05T17:36:07.080Z,25.57
2023-05-05T17:38:35.016Z,25.64
2023-05-05T17:41:03.574Z,25.48
2023-05-05T17:43:31.881Z,25.33
2023-05-05T17:45:58.596Z,25.17
2023-05-05T17:48:31.146Z,25.09
2023-05-05T17:50:57.648Z,24.94
2023-05-05T17:53:24.288Z,25.07
2023-05-05T17:55:52.258Z,24.96
2023-05-05T17:58:18.732Z,24.86
2023-05-05T18:00:45.173Z,24.84
2023-05-05T18:03:11.770Z,24.80
2023-05-05T18:05:38.499Z,24.78
2023-05-05T18:08:05.135Z,24.63
2023-05-05T18:10:31.652Z,24.63
2023-05-05T18:13:01.705Z,24.41
2023-05-05T18:15:28.204Z,24.45
2023-05-05T18:17:54.645Z,24.53
2023-05-05T18:20:21.167Z,24.61
2023-05-05T18:22:48.154Z,24.00
2023-05-05T18:25:14.619Z,23.30
2023-05-05T18:27:41.102Z,23.07
2023-05-05T18:30:10.091Z,23.47
2023-05-05T18:32:37.041Z,23.75
2023-05-05T18:35:03.990Z,24.07
2023-05-05T18:37:30.436Z,24.15
2023-05-05T18:39:56.875Z,24.22
2023-05-05T18:42:23.373Z,24.12
2023-05-05T18:44:49.846Z,23.17
2023-05-05T18:47:17.672Z,22.08
2023-05-05T18:49:44.119Z,20.50
2023-05-05T18:52:10.559Z,18.37
2023-05-05T18:54:37.914Z,15.49
2023-05-05T18:57:04.778Z,13.29
2023-05-05T18:59:31.672Z,13.24
2023-05-05T19:01:58.257Z,13.22
2023-05-05T19:04:31.311Z,13.17
2023-05-05T19:06:58.276Z,13.02
2023-05-05T19:09:24.745Z,13.07
2023-05-05T19:11:51.290Z,13.13
2023-05-05T19:14:17.807Z,13.10
2023-05-05T19:16:44.367Z,13.23
2023-05-05T19:19:10.934Z,13.51
2023-05-05T19:21:38.790Z,13.94
2023-05-05T19:24:06.225Z,14.06
2023-05-05T19:26:32.680Z,14.52
2023-05-05T19:28:59.323Z,14.86
2023-05-05T19:31:25.787Z,15.21
2023-05-05T19:33:52.332Z,15.50
2023-05-05T19:36:18.730Z,15.84
2023-05-05T19:38:46.553Z,15.85
2023-05-05T19:41:13.020Z,15.89
2023-05-05T19:43:39.501Z,16.08
2023-05-05T19:46:06.141Z,16.13
2023-05-05T19:48:32.615Z,16.12
2023-05-05T19:50:59.092Z,16.19
2023-05-05T19:53:25.610Z,16.17
2023-05-05T19:55:53.445Z,15.92
2023-05-05T19:58:19.872Z,15.76
2023-05-05T20:00:46.326Z,15.84
2023-05-05T20:03:12.910Z,15.83
2023-05-05T20:05:39.511Z,15.65
2023-05-05T20:08:06.082Z,15.19
2023-05-05T20:10:32.553Z,15.20
2023-05-05T20:13:00.504Z,15.07
2023-05-05T20:15:27.186Z,15.13
2023-05-05T20:17:53.707Z,15.16
2023-05-05T20:20:20.639Z,15.19
2023-05-05T20:22:47.372Z,15.06
2023-05-05T20:25:13.827Z,15.15
2023-05-05T20:27:40.322Z,14.92
2023-05-05T20:30:09.321Z,14.89
2023-05-05T20:32:36.174Z,15.01
2023-05-05T20:35:02.666Z,14.91
2023-05-05T20:37:29.362Z,15.21
2023-05-05T20:39:57.958Z,15.47
2023-05-05T20:42:24.420Z,15.51
2023-05-05T20:44:50.885Z,15.50
2023-05-05T20:47:18.727Z,15.37
2023-05-05T20:49:45.178Z,15.56
2023-05-05T20:52:11.605Z,15.55
2023-05-05T20:54:38.038Z,15.49
2023-05-05T20:57:04.493Z,15.70
2023-05-05T20:59:30.931Z,15.68
2023-05-05T21:01:57.383Z,15.86
2023-05-05T21:04:25.216Z,16.01
2023-05-05T21:06:52.010Z,15.89
2023-05-05T21:09:18.669Z,15.93
2023-05-05T21:11:45.331Z,16.00
2023-05-05T21:14:11.998Z,15.94
2023-05-05T21:16:38.788Z,15.79
2023-05-05T21:19:05.417Z,15.81
2023-05-05T21:21:33.506Z,15.96
2023-05-05T21:24:00.188Z,15.72
2023-05-05T21:26:26.860Z,15.73
2023-05-05T21:28:53.596Z,15.68
2023-05-05T21:31:22.169Z,15.90
2023-05-05T21:33:49.350Z,15.98
2023-05-05T21:36:16.015Z,15.99
2023-05-05T21:38:44.079Z,16.08
2023-05-05T21:41:10.732Z,16.17
2023-05-05T21:43:37.396Z,16.16
2023-05-05T21:46:05.493Z,16.23
2023-05-05T21:48:32.338Z,16.30
2023-05-05T21:50:59.018Z,16.40
2023-05-05T21:53:25.690Z,16.56
2023-05-05T21:55:53.735Z,16.56
2023-05-05T21:58:20.422Z,16.61
2023-05-05T22:00:48.945Z,16.62
2023-05-05T22:03:15.755Z,16.67
2023-05-05T22:05:42.539Z,16.78
2023-05-05T22:08:08.951Z,16.73
2023-05-05T22:10:35.653Z,16.57
2023-05-05T22:13:03.528Z,16.60
2023-05-05T22:15:35.667Z,16.67
2023-05-05T22:18:05.891Z,16.68
2023-05-05T22:20:32.340Z,16.69
2023-05-05T22:22:58.799Z,16.78
2023-05-05T22:25:25.225Z,16.83
2023-05-05T22:27:51.687Z,16.47
2023-05-05T22:30:19.550Z,16.37
2023-05-05T22:32:45.994Z,16.39
2023-05-05T22:35:12.582Z,16.49
2023-05-05T22:37:39.096Z,16.47
2023-05-05T22:40:06.379Z,16.43
2023-05-05T22:42:32.796Z,16.29
2023-05-05T22:44:59.260Z,15.93
2023-05-05T22:47:27.201Z,15.87
2023-05-05T22:49:53.705Z,15.79
2023-05-05T22:52:20.245Z,15.77
2023-05-05T22:54:46.675Z,15.96
2023-05-05T22:57:13.190Z,15.93
2023-05-05T22:59:39.606Z,15.72
2023-05-05T23:02:06.085Z,15.59
2023-05-05T23:04:34.119Z,15.77
2023-05-05T23:07:00.662Z,15.77
2023-05-05T23:09:27.133Z,15.84
2023-05-05T23:11:53.560Z,16.00
2023-05-05T23:14:20.063Z,16.00
2023-05-05T23:16:46.572Z,16.14
2023-05-05T23:19:13.184Z,16.36
2023-05-05T23:21:52.168Z,16.46
2023-05-05T23:24:19.945Z,16.50
2023-05-05T23:26:46.360Z,16.48
2023-05-05T23:29:12.771Z,16.58
2023-05-05T23:31:39.221Z,16.53
2023-05-05T23:34:05.659Z,16.47
2023-05-05T23:36:32.133Z,16.38
2023-05-05T23:38:59.970Z,16.44
2023-05-05T23:41:26.484Z,16.43
2023-05-05T23:43:52.937Z,16.45
2023-05-05T23:46:19.414Z,16.51
2023-05-05T23:48:45.883Z,16.52
2023-05-05T23:51:12.311Z,16.54
2023-05-05T23:53:38.787Z,16.47
2023-05-05T23:56:07.081Z,16.58
2023-05-05T23:58:33.528Z,16.53
